Time;durP1;ratioP1;P1;durP2;ratioP2;P2;SDS_P1;SDS_P2;PMS_P1;PMS_P2;Temp;Humidity;BMP_temperature;BMP_pressure;BME280_temperature;BME280_humidity;BME280_pressure;Samples;Min_cycle;Max_cycle;Signal;HPM_P1;HPM_P2
2022/10/16 00:01:19;;;;;;;8.10;2.70;;;;;;;;;;5062961;28;20012;-68
2022/10/16 00:03:46;;;;;;;8.10;2.80;;;;;;;;;;5057398;28;20067;-68
2022/10/16 00:06:13;;;;;;;8.32;2.67;;;;;;;;;;5059922;28;20433;-68
2022/10/16 00:08:39;;;;;;;9.85;3.05;;;;;;;;;;5059308;28;20113;-67
2022/10/16 00:11:08;;;;;;;8.27;2.53;;;;;;;;;;5059940;28;20242;-67
2022/10/16 00:13:35;;;;;;;7.80;2.85;;;;;;;;;;5055296;28;20028;-67
2022/10/16 00:16:01;;;;;;;8.98;3.08;;;;;;;;;;5059715;28;20017;-67
2022/10/16 00:18:28;;;;;;;10.10;4.40;;;;;;;;;;5060329;28;20024;-67
2022/10/16 00:20:54;;;;;;;9.02;3.22;;;;;;;;;;5058379;28;20033;-69
2022/10/16 00:23:21;;;;;;;8.50;2.95;;;;;;;;;;5063988;28;20035;-68
2022/10/16 00:25:57;;;;;;;8.32;2.60;;;;;;;;;;5049177;28;20024;-67
2022/10/16 00:28:23;;;;;;;8.43;2.22;;;;;;;;;;5068908;28;20126;-68
2022/10/16 00:30:49;;;;;;;;;;;;;;;;;;5052352;28;20507;-68
2022/10/16 00:33:15;;;;;;;7.82;2.45;;;;;;;;;;5055632;28;19920;-67
2022/10/16 00:35:41;;;;;;;;;;;;;;;;;;5057986;28;20039;-67
2022/10/16 00:38:07;;;;;;;8.70;2.55;;;;;;;;;;5054461;28;19934;-69
2022/10/16 00:40:33;;;;;;;;;;;;;;;;;;5058375;28;20373;-67
2022/10/16 00:43:00;;;;;;;7.32;2.20;;;;;;;;;;5058017;28;19922;-67
2022/10/16 00:45:26;;;;;;;8.93;2.58;;;;;;;;;;5061132;28;20066;-67
2022/10/16 00:47:52;;;;;;;;;;;;;;;;;;5058952;28;20056;-67
2022/10/16 00:50:32;;;;;;;8.98;2.47;;;;;;;;;;5064963;28;20042;-67
2022/10/16 00:52:59;;;;;;;7.93;2.20;;;;;;;;;;5061286;28;20043;-67
2022/10/16 00:55:25;;;;;;;8.20;2.20;;;;;;;;;;5065850;28;20354;-67
2022/10/16 00:57:52;;;;;;;9.02;2.50;;;;;;;;;;5057044;28;20139;-67
2022/10/16 01:00:20;;;;;;;8.70;2.13;;;;;;;;;;5055949;28;20024;-66
2022/10/16 01:02:52;;;;;;;7.47;2.28;;;;;;;;;;5054865;28;20058;-66
2022/10/16 01:05:18;;;;;;;6.95;2.28;;;;;;;;;;5055072;28;20040;-66
2022/10/16 01:07:44;;;;;;;;;;;;;;;;;;5057539;28;20051;-66
2022/10/16 01:10:22;;;;;;;7.75;2.13;;;;;;;;;;5062465;28;20416;-66
2022/10/16 01:12:51;;;;;;;7.00;2.10;;;;;;;;;;5059295;28;20074;-68
2022/10/16 01:15:22;;;;;;;5.70;1.98;;;;;;;;;;5058377;28;20028;-67
2022/10/16 01:17:51;;;;;;;8.00;2.30;;;;;;;;;;5054389;28;20446;-67
2022/10/16 01:20:20;;;;;;;7.30;1.95;;;;;;;;;;5055955;28;20035;-67
2022/10/16 01:22:49;;;;;;;7.45;2.28;;;;;;;;;;5052305;28;20075;-67
2022/10/16 01:25:31;;;;;;;7.18;2.10;;;;;;;;;;5052637;28;20030;-67
2022/10/16 01:27:57;;;;;;;6.95;2.40;;;;;;;;;;5057066;28;20051;-68
2022/10/16 01:30:26;;;;;;;8.65;2.33;;;;;;;;;;5059061;28;20053;-67
2022/10/16 01:33:03;;;;;;;12.75;3.60;;;;;;;;;;5055325;28;20044;-67
2022/10/16 01:35:35;;;;;;;10.65;3.50;;;;;;;;;;5052966;28;20949;-66
2022/10/16 01:38:04;;;;;;;9.48;3.10;;;;;;;;;;5058618;28;20433;-66
2022/10/16 01:40:32;;;;;;;10.50;3.20;;;;;;;;;;5059983;28;20099;-66
2022/10/16 01:43:01;;;;;;;9.32;2.97;;;;;;;;;;5060800;28;20024;-67
2022/10/16 01:45:28;;;;;;;8.98;2.80;;;;;;;;;;5064567;28;20159;-67
2022/10/16 01:47:55;;;;;;;10.68;2.58;;;;;;;;;;5057271;28;20594;-67
2022/10/16 01:50:22;;;;;;;8.00;2.53;;;;;;;;;;5058544;28;20522;-67
2022/10/16 01:52:50;;;;;;;11.98;3.50;;;;;;;;;;5051158;28;20017;-67
2022/10/16 01:55:32;;;;;;;9.93;3.20;;;;;;;;;;5052324;28;20043;-68
2022/10/16 01:57:59;;;;;;;11.82;3.67;;;;;;;;;;5065124;28;20110;-67
2022/10/16 02:00:26;;;;;;;10.82;3.60;;;;;;;;;;5062921;28;20023;-67
2022/10/16 02:02:54;;;;;;;11.50;3.40;;;;;;;;;;5055761;28;20477;-67
2022/10/16 02:05:31;;;;;;;9.80;3.22;;;;;;;;;;5056787;28;20225;-67
2022/10/16 02:07:57;;;;;;;9.80;3.50;;;;;;;;;;5064929;28;20366;-66
2022/10/16 02:10:23;;;;;;;;;;;;;;;;;;5064066;28;20021;-66
2022/10/16 02:13:01;;;;;;;9.82;3.25;;;;;;;;;;5061422;28;21239;-66
2022/10/16 02:15:27;;;;;;;10.35;3.40;;;;;;;;;;5062689;28;20031;-67
2022/10/16 02:17:53;;;;;;;;;;;;;;;;;;5057199;28;20036;-66
2022/10/16 02:20:23;;;;;;;12.05;4.28;;;;;;;;;;5059957;28;20060;-67
2022/10/16 02:22:51;;;;;;;8.25;3.10;;;;;;;;;;5051894;28;20112;-66
2022/10/16 02:25:25;;;;;;;10.65;4.28;;;;;;;;;;5058854;28;20032;-66
2022/10/16 02:27:58;;;;;;;8.32;3.03;;;;;;;;;;5053780;28;20062;-70
2022/10/16 02:30:27;;;;;;;9.25;3.08;;;;;;;;;;5060050;28;20031;-66
2022/10/16 02:32:54;;;;;;;10.27;2.50;;;;;;;;;;5052857;28;20055;-67
2022/10/16 02:35:21;;;;;;;7.82;2.25;;;;;;;;;;5060778;28;20040;-68
2022/10/16 02:37:48;;;;;;;9.32;2.75;;;;;;;;;;5050869;28;20074;-67
2022/10/16 02:40:14;;;;;;;10.23;2.67;;;;;;;;;;5055712;28;20032;-66
2022/10/16 02:42:41;;;;;;;8.45;3.13;;;;;;;;;;5057940;28;20486;-66
2022/10/16 02:45:08;;;;;;;10.90;3.10;;;;;;;;;;5059013;28;20031;-67
2022/10/16 02:47:34;;;;;;;10.55;2.70;;;;;;;;;;5057139;28;20038;-67
2022/10/16 02:50:00;;;;;;;;;;;;;;;;;;5059604;28;20036;-66
2022/10/16 02:52:26;;;;;;;8.57;2.05;;;;;;;;;;5064137;28;19911;-66
2022/10/16 02:54:52;;;;;;;;;;;;;;;;;;5058779;28;20025;-66
2022/10/16 02:57:18;;;;;;;5.22;1.63;;;;;;;;;;5067156;28;20256;-66
2022/10/16 02:59:44;;;;;;;7.93;1.95;;;;;;;;;;5056010;28;20029;-67
2022/10/16 03:02:11;;;;;;;9.48;2.55;;;;;;;;;;5058713;28;20513;-66
2022/10/16 03:04:37;;;;;;;10.05;3.10;;;;;;;;;;5053895;28;20029;-66
2022/10/16 03:07:03;;;;;;;9.15;2.70;;;;;;;;;;5065951;28;20326;-67
2022/10/16 03:09:29;;;;;;;;;;;;;;;;;;5058319;28;20274;-67
2022/10/16 03:11:55;;;;;;;8.68;2.03;;;;;;;;;;5064593;28;20756;-67
2022/10/16 03:14:21;;;;;;;;;;;;;;;;;;5063328;28;20035;-67
2022/10/16 03:16:47;;;;;;;9.43;2.38;;;;;;;;;;5054350;28;19916;-67
2022/10/16 03:19:13;;;;;;;;;;;;;;;;;;5063907;28;20633;-67
2022/10/16 03:21:39;;;;;;;10.25;4.03;;;;;;;;;;5055591;28;19919;-66
2022/10/16 03:24:05;;;;;;;;;;;;;;;;;;5060188;28;20508;-67
2022/10/16 03:26:31;;;;;;;10.23;3.08;;;;;;;;;;5058760;28;19911;-65
2022/10/16 03:28:57;;;;;;;;;;;;;;;;;;5064578;28;20120;-67
2022/10/16 03:31:23;;;;;;;11.13;2.78;;;;;;;;;;5063944;28;19912;-67
2022/10/16 03:33:49;;;;;;;;;;;;;;;;;;5060097;28;20662;-67
2022/10/16 03:36:15;;;;;;;6.28;2.13;;;;;;;;;;5064139;28;19973;-67
2022/10/16 03:38:41;;;;;;;;;;;;;;;;;;5060507;28;20493;-67
2022/10/16 03:41:08;;;;;;;8.20;2.33;;;;;;;;;;5061654;28;19916;-67
2022/10/16 03:43:33;;;;;;;;;;;;;;;;;;5059486;28;20133;-68
2022/10/16 03:46:00;;;;;;;10.77;3.10;;;;;;;;;;5061854;28;20490;-67
2022/10/16 03:48:26;;;;;;;7.43;2.70;;;;;;;;;;5057734;28;20062;-67
2022/10/16 03:50:52;;;;;;;;;;;;;;;;;;5062677;28;20035;-66
2022/10/16 03:53:18;;;;;;;7.97;2.40;;;;;;;;;;5058308;28;20311;-68
2022/10/16 03:55:44;;;;;;;;;;;;;;;;;;5058292;28;20032;-66
2022/10/16 03:58:10;;;;;;;7.65;2.35;;;;;;;;;;5060960;28;19948;-68
2022/10/16 04:00:36;;;;;;;;;;;;;;;;;;5058751;28;20059;-65
2022/10/16 04:03:02;;;;;;;8.30;2.50;;;;;;;;;;5064798;28;20527;-69
2022/10/16 04:05:28;;;;;;;;;;;;;;;;;;5060894;28;20446;-67
2022/10/16 04:07:54;;;;;;;8.20;2.38;;;;;;;;;;5072735;28;20244;-67
2022/10/16 04:10:20;;;;;;;9.07;2.65;;;;;;;;;;5067665;28;20077;-67
2022/10/16 04:12:47;;;;;;;11.23;2.60;;;;;;;;;;5055824;28;20095;-67
2022/10/16 04:15:13;;;;;;;;;;;;;;;;;;5062487;28;20141;-67
2022/10/16 04:17:39;;;;;;;7.65;2.22;;;;;;;;;;5060822;28;19916;-66
2022/10/16 04:20:05;;;;;;;9.63;2.63;;;;;;;;;;5061725;28;20031;-66
2022/10/16 04:22:31;;;;;;;9.55;2.25;;;;;;;;;;5059051;28;20481;-66
2022/10/16 04:24:57;;;;;;;9.05;2.15;;;;;;;;;;5059886;28;20081;-67
2022/10/16 04:27:24;;;;;;;12.27;2.22;;;;;;;;;;5063258;28;20417;-67
2022/10/16 04:29:50;;;;;;;;;;;;;;;;;;5054205;28;20625;-66
2022/10/16 04:32:16;;;;;;;7.93;2.30;;;;;;;;;;5066453;28;20318;-66
2022/10/16 04:34:42;;;;;;;;;;;;;;;;;;5065008;28;20563;-66
2022/10/16 04:37:08;;;;;;;7.28;2.20;;;;;;;;;;5065705;28;19916;-66
2022/10/16 04:39:34;;;;;;;7.45;2.10;;;;;;;;;;5063076;28;20024;-66
2022/10/16 04:42:00;;;;;;;;;;;;;;;;;;5063029;28;20032;-66
2022/10/16 04:44:26;;;;;;;7.68;1.90;;;;;;;;;;5066703;28;20316;-66
2022/10/16 04:46:52;;;;;;;;;;;;;;;;;;5060033;28;20063;-67
2022/10/16 04:49:18;;;;;;;6.97;1.80;;;;;;;;;;5058062;28;20397;-67
2022/10/16 04:51:44;;;;;;;;;;;;;;;;;;5062545;28;20588;-67
2022/10/16 04:54:10;;;;;;;8.35;1.90;;;;;;;;;;5061704;28;19930;-67
2022/10/16 04:56:42;;;;;;;7.57;1.85;;;;;;;;;;5060066;28;20641;-65
2022/10/16 04:59:09;;;;;;;8.40;1.83;;;;;;;;;;5063331;28;20028;-67
2022/10/16 05:01:35;;;;;;;8.57;1.73;;;;;;;;;;5061579;28;20638;-68
2022/10/16 05:04:01;;;;;;;;;;;;;;;;;;5065975;28;20027;-67
2022/10/16 05:06:27;;;;;;;8.23;2.33;;;;;;;;;;5061513;28;19916;-67
2022/10/16 05:08:53;;;;;;;;;;;;;;;;;;5053897;28;20081;-67
2022/10/16 05:11:19;;;;;;;7.85;2.03;;;;;;;;;;5060538;28;19907;-67
2022/10/16 05:13:45;;;;;;;9.80;2.20;;;;;;;;;;5059005;28;20047;-67
2022/10/16 05:16:11;;;;;;;6.30;1.70;;;;;;;;;;5066286;28;20390;-67
2022/10/16 05:18:37;;;;;;;;;;;;;;;;;;5064156;28;20047;-68
2022/10/16 05:21:03;;;;;;;5.53;1.60;;;;;;;;;;5067551;28;19912;-66
2022/10/16 05:23:29;;;;;;;;;;;;;;;;;;5058822;28;20310;-67
2022/10/16 05:25:57;;;;;;;7.80;2.05;;;;;;;;;;5058355;28;20488;-66
2022/10/16 05:28:24;;;;;;;8.10;2.03;;;;;;;;;;5061874;28;20039;-66
2022/10/16 05:30:50;;;;;;;12.63;2.60;;;;;;;;;;5066853;28;20031;-66
2022/10/16 05:33:16;;;;;;;8.40;2.10;;;;;;;;;;5062365;28;20670;-66
2022/10/16 05:35:42;;;;;;;;;;;;;;;;;;5058934;28;20036;-66
2022/10/16 05:38:08;;;;;;;10.13;2.10;;;;;;;;;;5064628;28;19928;-66
2022/10/16 05:40:35;;;;;;;;;;;;;;;;;;5057347;28;20113;-66
2022/10/16 05:43:01;;;;;;;7.70;2.10;;;;;;;;;;5063009;28;19922;-67
2022/10/16 05:45:27;;;;;;;;;;;;;;;;;;5065494;28;20040;-66
2022/10/16 05:47:53;;;;;;;10.20;2.20;;;;;;;;;;5053096;28;20341;-66
2022/10/16 05:50:19;;;;;;;11.18;2.38;;;;;;;;;;5062321;28;20024;-67
2022/10/16 05:52:45;;;;;;;;;;;;;;;;;;5059333;28;20446;-66
2022/10/16 05:55:11;;;;;;;7.68;2.28;;;;;;;;;;5060235;28;19947;-67
2022/10/16 05:57:37;;;;;;;;;;;;;;;;;;5059770;28;20024;-66
2022/10/16 06:00:04;;;;;;;8.02;2.13;;;;;;;;;;5060081;28;19918;-66
2022/10/16 06:02:30;;;;;;;7.95;2.08;;;;;;;;;;5053973;28;20675;-67
2022/10/16 06:04:56;;;;;;;;;;;;;;;;;;5061517;28;20651;-66
2022/10/16 06:07:23;;;;;;;8.65;2.08;;;;;;;;;;5057259;28;19912;-67
2022/10/16 06:09:52;;;;;;;9.65;2.10;;;;;;;;;;5057737;28;20043;-67
2022/10/16 06:12:19;;;;;;;9.25;2.15;;;;;;;;;;5060987;28;20480;-67
2022/10/16 06:14:46;;;;;;;7.45;2.00;;;;;;;;;;5061815;28;20028;-66
2022/10/16 06:17:13;;;;;;;7.72;2.08;;;;;;;;;;5060328;28;20062;-66
2022/10/16 06:19:39;;;;;;;9.95;2.28;;;;;;;;;;5058045;28;20066;-66
2022/10/16 06:22:06;;;;;;;6.90;1.95;;;;;;;;;;5063497;28;20026;-66
2022/10/16 06:24:31;;;;;;;;;;;;;;;;;;5056988;28;20518;-65
2022/10/16 06:26:58;;;;;;;6.25;1.88;;;;;;;;;;5060969;28;19913;-66
2022/10/16 06:29:24;;;;;;;;;;;;;;;;;;5066571;28;20471;-66
2022/10/16 06:31:50;;;;;;;9.52;2.30;;;;;;;;;;5055361;28;20538;-68
2022/10/16 06:34:16;;;;;;;;;;;;;;;;;;5065126;28;20056;-67
2022/10/16 06:36:43;;;;;;;9.00;1.98;;;;;;;;;;5057877;28;19949;-66
2022/10/16 06:39:09;;;;;;;7.32;1.85;;;;;;;;;;5067068;28;20579;-67
2022/10/16 06:41:35;;;;;;;;;;;;;;;;;;5062874;28;20641;-66
2022/10/16 06:44:01;;;;;;;8.30;1.98;;;;;;;;;;5059899;28;20535;-68
2022/10/16 06:46:28;;;;;;;7.70;1.80;;;;;;;;;;5066774;28;20512;-66
2022/10/16 06:48:54;;;;;;;8.98;2.20;;;;;;;;;;5061444;28;20144;-68
2022/10/16 06:51:20;;;;;;;;;;;;;;;;;;5067578;28;20486;-68
2022/10/16 06:53:50;;;;;;;7.72;1.90;;;;;;;;;;5064046;28;19966;-67
2022/10/16 06:56:23;;;;;;;9.02;2.20;;;;;;;;;;5065680;28;20032;-68
2022/10/16 06:58:49;;;;;;;10.05;2.00;;;;;;;;;;5056779;28;20835;-68
2022/10/16 07:01:16;;;;;;;8.07;2.28;;;;;;;;;;5067179;28;20063;-68
2022/10/16 07:03:43;;;;;;;9.38;2.42;;;;;;;;;;5061176;28;20428;-68
2022/10/16 07:06:11;;;;;;;9.05;2.20;;;;;;;;;;5061596;28;20048;-67
2022/10/16 07:08:38;;;;;;;10.30;2.15;;;;;;;;;;5058508;28;20759;-67
2022/10/16 07:11:05;;;;;;;10.38;2.28;;;;;;;;;;5065461;28;20032;-69
2022/10/16 07:13:35;;;;;;;9.73;2.20;;;;;;;;;;5061252;28;20035;-67
2022/10/16 07:16:28;;;;;;;8.30;2.30;;;;;;;;;;5069926;28;20109;-68
2022/10/16 07:18:58;;;;;;;9.95;2.40;;;;;;;;;;5054071;28;20036;-67
2022/10/16 07:21:25;;;;;;;10.70;3.30;;;;;;;;;;5063276;28;20534;-69
2022/10/16 07:23:52;;;;;;;10.48;3.63;;;;;;;;;;5058950;28;20035;-68
2022/10/16 07:26:18;;;;;;;11.77;3.65;;;;;;;;;;5063125;28;20926;-67
2022/10/16 07:28:44;;;;;;;9.43;2.63;;;;;;;;;;5070442;28;20028;-68
2022/10/16 07:31:10;;;;;;;;;;;;;;;;;;5073396;28;20063;-66
2022/10/16 07:33:37;;;;;;;12.38;3.00;;;;;;;;;;5064676;28;19920;-67
2022/10/16 07:36:03;;;;;;;8.25;2.10;;;;;;;;;;5064469;28;20115;-67
2022/10/16 07:38:29;;;;;;;8.05;2.30;;;;;;;;;;5067673;28;20032;-68
2022/10/16 07:40:59;;;;;;;9.05;2.30;;;;;;;;;;5064849;28;20522;-67
2022/10/16 07:43:25;;;;;;;9.10;2.30;;;;;;;;;;5063698;28;20043;-69
2022/10/16 07:45:52;;;;;;;9.82;2.58;;;;;;;;;;5067319;28;20020;-67
2022/10/16 07:48:18;;;;;;;7.07;2.47;;;;;;;;;;5057721;28;20033;-68
2022/10/16 07:50:45;;;;;;;7.85;2.60;;;;;;;;;;5065841;28;20503;-67
2022/10/16 07:53:12;;;;;;;10.65;2.70;;;;;;;;;;5066693;28;20374;-68
2022/10/16 07:55:38;;;;;;;8.52;2.33;;;;;;;;;;5063346;28;20557;-69
2022/10/16 07:58:05;;;;;;;7.75;2.10;;;;;;;;;;5063982;28;20526;-69
2022/10/16 08:00:31;;;;;;;9.07;2.90;;;;;;;;;;5056684;28;20051;-67
2022/10/16 08:03:00;;;;;;;11.95;3.70;;;;;;;;;;5063447;28;20133;-68
2022/10/16 08:05:27;;;;;;;11.77;4.43;;;;;;;;;;5068086;28;20077;-67
2022/10/16 08:07:53;;;;;;;11.68;3.92;;;;;;;;;;5059178;28;20031;-68
2022/10/16 08:10:21;;;;;;;10.07;3.20;;;;;;;;;;5060916;28;20032;-69
2022/10/16 08:12:47;;;;;;;9.43;3.47;;;;;;;;;;5056728;28;20039;-68
2022/10/16 08:15:13;;;;;;;9.68;2.90;;;;;;;;;;5059608;28;20040;-68
2022/10/16 08:17:39;;;;;;;9.60;3.08;;;;;;;;;;5059341;28;20642;-67
2022/10/16 08:20:05;;;;;;;11.57;3.20;;;;;;;;;;5064264;28;21516;-68
2022/10/16 08:22:32;;;;;;;9.95;2.72;;;;;;;;;;5062466;28;20034;-68
2022/10/16 08:24:58;;;;;;;8.75;2.78;;;;;;;;;;5061157;28;20024;-68
2022/10/16 08:27:24;;;;;;;9.82;2.85;;;;;;;;;;5064267;28;20040;-68
2022/10/16 08:29:50;;;;;;;10.88;2.63;;;;;;;;;;5058750;28;20532;-68
2022/10/16 08:32:16;;;;;;;8.20;2.35;;;;;;;;;;5065549;28;20094;-69
2022/10/16 08:34:42;;;;;;;11.15;2.88;;;;;;;;;;5059653;28;20608;-68
2022/10/16 08:37:11;;;;;;;10.07;2.70;;;;;;;;;;5060744;28;20042;-68
2022/10/16 08:39:37;;;;;;;8.80;2.30;;;;;;;;;;5060153;28;20035;-66
2022/10/16 08:42:10;;;;;;;11.00;2.70;;;;;;;;;;5062090;28;20024;-68
2022/10/16 08:44:50;;;;;;;8.90;2.60;;;;;;;;;;5058093;28;20365;-69
2022/10/16 08:47:19;;;;;;;8.50;2.50;;;;;;;;;;5061040;28;20030;-66
2022/10/16 08:49:53;;;;;;;9.93;3.15;;;;;;;;;;5066413;28;20054;-69
2022/10/16 08:52:19;;;;;;;12.05;3.30;;;;;;;;;;5065071;28;20347;-68
2022/10/16 08:54:47;;;;;;;9.50;3.00;;;;;;;;;;5061500;28;20153;-68
2022/10/16 08:57:21;;;;;;;11.27;3.50;;;;;;;;;;5065698;28;20551;-68
2022/10/16 08:59:48;;;;;;;12.85;4.45;;;;;;;;;;5057772;28;20060;-68
2022/10/16 09:02:25;;;;;;;11.15;3.85;;;;;;;;;;5060292;28;20036;-68
2022/10/16 09:05:09;;;;;;;11.10;3.42;;;;;;;;;;5064006;28;20071;-67
2022/10/16 09:07:41;;;;;;;17.13;4.07;;;;;;;;;;5056669;28;20270;-68
2022/10/16 09:10:33;;;;;;;12.80;3.30;;;;;;;;;;5061085;28;20374;-69
2022/10/16 09:13:12;;;;;;;11.93;3.70;;;;;;;;;;5059797;28;20450;-67
2022/10/16 09:15:44;;;;;;;12.27;4.10;;;;;;;;;;5056468;28;20090;-66
2022/10/16 09:18:16;;;;;;;11.10;3.22;;;;;;;;;;5063515;28;20557;-68
2022/10/16 09:20:59;;;;;;;12.40;3.35;;;;;;;;;;5051251;28;20076;-68
2022/10/16 09:23:27;;;;;;;10.43;2.92;;;;;;;;;;5060592;28;20060;-68
2022/10/16 09:25:53;;;;;;;10.23;2.95;;;;;;;;;;5054736;28;20039;-68
2022/10/16 09:28:19;;;;;;;9.82;3.22;;;;;;;;;;5060220;28;20119;-69
2022/10/16 09:30:48;;;;;;;10.07;3.50;;;;;;;;;;5059403;28;20398;-67
2022/10/16 09:33:15;;;;;;;9.90;3.80;;;;;;;;;;5062916;28;20803;-69
2022/10/16 09:35:43;;;;;;;11.68;4.50;;;;;;;;;;5056976;28;20449;-67
2022/10/16 09:38:21;;;;;;;10.98;4.25;;;;;;;;;;5061775;28;20625;-67
2022/10/16 09:40:47;;;;;;;11.70;4.07;;;;;;;;;;5050964;28;20023;-68
2022/10/16 09:43:20;;;;;;;11.70;4.10;;;;;;;;;;5058255;28;20127;-68
2022/10/16 09:46:18;;;;;;;14.82;4.75;;;;;;;;;;5056927;28;20031;-68
2022/10/16 09:48:45;;;;;;;17.10;7.53;;;;;;;;;;5010703;28;20040;-70
2022/10/16 09:51:19;;;;;;;15.07;6.90;;;;;;;;;;5016503;28;20115;-68
2022/10/16 09:53:47;;;;;;;13.80;7.07;;;;;;;;;;5010275;28;20347;-67
2022/10/16 09:56:21;;;;;;;14.50;6.90;;;;;;;;;;4998483;28;20025;-67
2022/10/16 09:58:52;;;;;;;18.17;9.15;;;;;;;;;;5011506;28;20372;-68
2022/10/16 10:01:18;;;;;;;20.83;11.48;;;;;;;;;;5017338;28;20406;-68
2022/10/16 10:03:45;;;;;;;18.27;9.82;;;;;;;;;;5008871;28;20039;-68
2022/10/16 10:06:19;;;;;;;17.55;8.43;;;;;;;;;;5021270;28;20171;-68
2022/10/16 10:09:03;;;;;;;17.15;9.07;;;;;;;;;;4996025;28;20193;-68
2022/10/16 10:12:05;;;;;;;11.75;4.80;;;;;;;;;;5012339;28;20135;-69
2022/10/16 10:14:35;;;;;;;12.15;4.82;;;;;;;;;;4943712;28;20456;-67
2022/10/16 10:17:15;;;;;;;10.18;3.63;;;;;;;;;;4947198;28;20046;-68
2022/10/16 10:19:54;;;;;;;10.40;3.92;;;;;;;;;;4947411;28;20144;-68
2022/10/16 10:22:24;;;;;;;14.50;4.10;;;;;;;;;;4951021;28;20045;-68
2022/10/16 10:24:57;;;;;;;9.02;3.30;;;;;;;;;;4975781;28;20960;-69
2022/10/16 10:27:27;;;;;;;11.40;3.70;;;;;;;;;;4998033;28;20049;-68
2022/10/16 10:29:53;;;;;;;13.63;5.10;;;;;;;;;;4993637;28;20127;-67
2022/10/16 10:32:27;;;;;;;13.05;5.35;;;;;;;;;;5000749;28;20856;-69
2022/10/16 10:35:14;;;;;;;15.02;5.55;;;;;;;;;;4996664;28;20132;-69
2022/10/16 10:37:54;;;;;;;15.82;6.25;;;;;;;;;;4996213;28;20100;-69
2022/10/16 10:40:32;;;;;;;14.27;5.80;;;;;;;;;;4998745;28;20607;-68
2022/10/16 10:43:16;;;;;;;10.20;4.65;;;;;;;;;;4984629;28;20137;-68
2022/10/16 10:45:45;;;;;;;11.50;4.40;;;;;;;;;;4997472;28;20117;-68
2022/10/16 10:48:17;;;;;;;13.70;5.38;;;;;;;;;;5018846;28;20471;-67
2022/10/16 10:50:45;;;;;;;12.98;5.10;;;;;;;;;;5058565;28;20446;-67
2022/10/16 10:53:21;;;;;;;10.95;4.63;;;;;;;;;;5067225;28;20038;-67
2022/10/16 10:55:47;;;;;;;;;;;;;;;;;;5060819;28;20042;-67
2022/10/16 10:58:16;;;;;;;11.10;4.18;;;;;;;;;;5066787;28;19911;-67
2022/10/16 11:00:51;;;;;;;11.75;4.80;;;;;;;;;;5062953;28;20027;-69
2022/10/16 11:03:36;;;;;;;11.35;3.95;;;;;;;;;;5067740;28;20100;-68
2022/10/16 11:06:28;;;;;;;11.43;3.38;;;;;;;;;;5062833;28;20496;-67
2022/10/16 11:08:59;;;;;;;10.02;3.58;;;;;;;;;;5056809;28;20067;-66
2022/10/16 11:11:29;;;;;;;10.63;3.65;;;;;;;;;;5066215;28;20109;-68
2022/10/16 11:14:01;;;;;;;11.13;3.80;;;;;;;;;;5059880;28;20023;-67
2022/10/16 11:16:29;;;;;;;10.23;3.63;;;;;;;;;;5062162;28;20106;-67
2022/10/16 11:19:14;;;;;;;10.15;3.50;;;;;;;;;;5064877;28;20544;-68
2022/10/16 11:21:48;;;;;;;11.13;4.07;;;;;;;;;;5058345;28;20595;-68
2022/10/16 11:24:21;;;;;;;10.50;3.30;;;;;;;;;;5064063;28;20382;-68
2022/10/16 11:26:48;;;;;;;9.55;3.60;;;;;;;;;;5056382;28;20397;-68
2022/10/16 11:29:20;;;;;;;16.80;12.80;;;;;;;;;;5071897;28;20032;-67
2022/10/16 11:31:49;;;;;;;11.27;4.38;;;;;;;;;;5067709;28;20448;-67
2022/10/16 11:34:23;;;;;;;10.45;3.45;;;;;;;;;;5066369;28;20070;-68
2022/10/16 11:36:49;;;;;;;10.27;3.38;;;;;;;;;;5064284;28;22748;-68
2022/10/16 11:39:23;;;;;;;10.45;3.60;;;;;;;;;;5062766;28;20031;-68
2022/10/16 11:41:55;;;;;;;14.63;4.17;;;;;;;;;;5060791;28;22136;-68
2022/10/16 11:44:25;;;;;;;9.55;3.80;;;;;;;;;;5061867;28;20687;-67
2022/10/16 11:47:12;;;;;;;11.68;4.25;;;;;;;;;;5065948;28;20083;-68
2022/10/16 11:49:39;;;;;;;12.02;3.85;;;;;;;;;;5060480;28;20485;-67
2022/10/16 11:52:08;;;;;;;11.20;3.08;;;;;;;;;;5061916;28;20503;-68
2022/10/16 11:54:39;;;;;;;12.15;3.60;;;;;;;;;;5059415;28;20065;-68
2022/10/16 11:57:17;;;;;;;14.88;6.53;;;;;;;;;;5064034;28;20028;-68
2022/10/16 11:59:49;;;;;;;10.98;3.80;;;;;;;;;;5057544;28;20016;-68
2022/10/16 12:02:35;;;;;;;11.85;4.00;;;;;;;;;;5062932;28;20036;-67
2022/10/16 12:05:04;;;;;;;12.13;3.90;;;;;;;;;;5053765;28;20336;-69
2022/10/16 12:07:37;;;;;;;10.27;3.72;;;;;;;;;;5063413;28;20036;-67
2022/10/16 12:10:23;;;;;;;12.88;3.40;;;;;;;;;;5060170;28;20345;-68
2022/10/16 12:12:50;;;;;;;12.57;3.70;;;;;;;;;;5058153;28;20032;-67
2022/10/16 12:15:21;;;;;;;9.50;3.22;;;;;;;;;;5064584;28;20110;-68
2022/10/16 12:17:47;;;;;;;10.48;3.30;;;;;;;;;;5061050;28;20130;-67
2022/10/16 12:20:14;;;;;;;10.30;3.28;;;;;;;;;;5064458;28;20070;-68
2022/10/16 12:22:57;;;;;;;12.13;3.60;;;;;;;;;;5063652;28;20024;-67
2022/10/16 12:25:29;;;;;;;11.52;3.90;;;;;;;;;;5061846;28;20055;-67
2022/10/16 12:27:57;;;;;;;14.57;3.67;;;;;;;;;;5066712;28;20089;-68
2022/10/16 12:30:24;;;;;;;10.50;3.60;;;;;;;;;;5067760;28;20032;-68
2022/10/16 12:32:58;;;;;;;9.65;3.47;;;;;;;;;;5058237;28;20494;-69
2022/10/16 12:35:28;;;;;;;15.85;7.40;;;;;;;;;;5058593;28;20470;-68
2022/10/16 12:37:55;;;;;;;9.95;3.60;;;;;;;;;;5058195;28;20141;-68
2022/10/16 12:40:26;;;;;;;9.15;3.40;;;;;;;;;;5059345;28;20125;-69
2022/10/16 12:42:52;;;;;;;18.02;6.70;;;;;;;;;;5060605;28;20361;-68
2022/10/16 12:45:26;;;;;;;12.77;4.00;;;;;;;;;;5067903;28;20052;-67
2022/10/16 12:47:53;;;;;;;15.53;4.50;;;;;;;;;;5053910;28;20064;-68
2022/10/16 12:50:35;;;;;;;12.25;3.83;;;;;;;;;;5062691;28;20020;-68
2022/10/16 12:53:02;;;;;;;10.20;3.25;;;;;;;;;;5057621;28;20376;-67
2022/10/16 12:55:32;;;;;;;10.35;2.85;;;;;;;;;;5061986;28;20531;-68
2022/10/16 12:58:22;;;;;;;9.52;3.47;;;;;;;;;;5064805;28;20027;-68
2022/10/16 13:00:58;;;;;;;10.32;3.72;;;;;;;;;;5054637;28;20081;-67
2022/10/16 13:03:27;;;;;;;11.07;3.38;;;;;;;;;;5058127;28;20047;-68
2022/10/16 13:05:53;;;;;;;10.52;2.95;;;;;;;;;;5058071;28;20397;-69
2022/10/16 13:08:25;;;;;;;12.65;3.65;;;;;;;;;;5064875;28;20541;-67
2022/10/16 13:10:51;;;;;;;9.95;3.25;;;;;;;;;;5060799;28;20568;-67
2022/10/16 13:13:27;;;;;;;9.52;2.75;;;;;;;;;;5063265;28;20078;-68
2022/10/16 13:15:56;;;;;;;8.88;2.80;;;;;;;;;;5054407;28;20531;-67
2022/10/16 13:18:25;;;;;;;10.95;4.00;;;;;;;;;;5062119;28;20257;-68
2022/10/16 13:20:51;;;;;;;9.90;3.05;;;;;;;;;;5058568;28;20024;-68
2022/10/16 13:23:27;;;;;;;10.38;3.03;;;;;;;;;;5063256;28;20092;-68
2022/10/16 13:26:12;;;;;;;9.48;3.00;;;;;;;;;;5055932;28;20509;-69
2022/10/16 13:28:38;;;;;;;8.25;2.70;;;;;;;;;;5055941;28;20142;-68
2022/10/16 13:31:05;;;;;;;7.63;2.28;;;;;;;;;;5058473;28;20120;-69
2022/10/16 13:33:42;;;;;;;10.30;2.30;;;;;;;;;;5052627;28;20048;-69
2022/10/16 13:36:19;;;;;;;8.63;2.33;;;;;;;;;;5057114;28;20111;-69
2022/10/16 13:38:45;;;;;;;9.10;2.42;;;;;;;;;;5060496;28;20553;-68
2022/10/16 13:41:20;;;;;;;7.75;1.90;;;;;;;;;;5057016;28;20440;-68
2022/10/16 13:43:45;;;;;;;;;;;;;;;;;;5058003;28;20027;-68
2022/10/16 13:46:19;;;;;;;9.13;2.28;;;;;;;;;;5065097;28;20245;-69
2022/10/16 13:48:45;;;;;;;10.80;2.38;;;;;;;;;;5052756;28;20032;-69
2022/10/16 13:51:16;;;;;;;9.10;2.33;;;;;;;;;;5059192;28;20028;-68
2022/10/16 13:53:43;;;;;;;10.05;2.25;;;;;;;;;;5055719;28;20527;-68
2022/10/16 13:56:17;;;;;;;7.47;1.80;;;;;;;;;;5055652;28;20134;-70
2022/10/16 13:58:46;;;;;;;9.40;2.20;;;;;;;;;;5056900;28;20061;-69
2022/10/16 14:01:17;;;;;;;9.07;2.25;;;;;;;;;;5059852;28;20531;-68
2022/10/16 14:03:44;;;;;;;10.00;2.38;;;;;;;;;;5058364;28;20561;-69
2022/10/16 14:06:28;;;;;;;9.57;2.25;;;;;;;;;;5063274;28;20054;-68
2022/10/16 14:09:05;;;;;;;7.35;2.03;;;;;;;;;;5053580;28;20353;-69
2022/10/16 14:11:32;;;;;;;8.07;2.00;;;;;;;;;;5057581;28;20020;-69
2022/10/16 14:13:58;;;;;;;8.40;2.22;;;;;;;;;;5061990;28;20027;-68
2022/10/16 14:16:27;;;;;;;8.50;2.00;;;;;;;;;;5062219;28;20036;-69
2022/10/16 14:18:56;;;;;;;8.20;1.88;;;;;;;;;;5059567;28;20046;-68
2022/10/16 14:21:22;;;;;;;7.32;1.70;;;;;;;;;;5060110;28;20024;-68
2022/10/16 14:23:49;;;;;;;7.93;1.95;;;;;;;;;;5054188;28;20035;-69
2022/10/16 14:26:16;;;;;;;8.00;1.92;;;;;;;;;;5060170;28;20469;-68
2022/10/16 14:28:42;;;;;;;8.35;2.30;;;;;;;;;;5058596;28;20112;-68
2022/10/16 14:31:27;;;;;;;9.50;2.10;;;;;;;;;;5056660;28;20104;-68
2022/10/16 14:33:54;;;;;;;8.05;2.40;;;;;;;;;;5055614;28;20759;-69
2022/10/16 14:36:21;;;;;;;9.25;2.40;;;;;;;;;;5057740;28;20551;-68
2022/10/16 14:38:50;;;;;;;8.73;2.05;;;;;;;;;;5056306;28;20571;-68
2022/10/16 14:41:20;;;;;;;8.60;2.08;;;;;;;;;;5059046;28;20465;-68
2022/10/16 14:43:51;;;;;;;10.68;2.47;;;;;;;;;;5056254;28;20467;-69
2022/10/16 14:46:18;;;;;;;9.63;2.70;;;;;;;;;;5061810;28;20127;-67
2022/10/16 14:48:47;;;;;;;8.93;2.45;;;;;;;;;;5053211;28;20478;-68
2022/10/16 14:51:20;;;;;;;8.48;2.20;;;;;;;;;;5057500;28;20059;-67
2022/10/16 14:53:46;;;;;;;8.32;2.30;;;;;;;;;;5057756;28;20032;-69
2022/10/16 14:56:17;;;;;;;7.57;1.90;;;;;;;;;;5060337;28;20044;-68
2022/10/16 14:58:44;;;;;;;9.13;2.92;;;;;;;;;;5051946;28;20033;-67
2022/10/16 15:01:11;;;;;;;9.65;3.30;;;;;;;;;;5060494;28;20032;-68
2022/10/16 15:03:38;;;;;;;10.57;3.05;;;;;;;;;;5061186;28;20265;-68